createdAt,value
2024-05-09T00:10:22.618Z,1023.68
2024-05-09T00:25:39.573Z,1023.68
2024-05-09T00:41:04.497Z,1023.65
2024-05-09T00:56:29.623Z,1023.53
2024-05-09T01:11:54.755Z,1023.45
2024-05-09T01:27:19.439Z,1023.43
2024-05-09T01:42:44.466Z,1023.31
2024-05-09T01:58:09.914Z,1023.30
2024-05-09T02:13:34.499Z,1023.30
2024-05-09T02:28:59.453Z,1023.24
2024-05-09T02:44:24.524Z,1023.23
2024-05-09T02:59:49.402Z,1023.15
2024-05-09T03:15:14.442Z,1023.17
2024-05-09T03:30:42.429Z,1023.14
2024-05-09T03:46:04.397Z,1023.15
2024-05-09T04:01:29.469Z,1023.32
2024-05-09T04:16:54.423Z,1023.36
2024-05-09T04:32:19.474Z,1023.37
2024-05-09T04:47:44.430Z,1023.45
2024-05-09T05:03:10.780Z,1023.49
2024-05-09T05:18:34.352Z,1023.46
2024-05-09T05:33:59.404Z,1023.55
2024-05-09T05:49:24.463Z,1023.69
2024-05-09T06:04:49.472Z,1023.71
2024-05-09T06:20:20.610Z,1023.79
2024-05-09T06:35:39.622Z,1023.79
2024-05-09T06:51:04.317Z,1023.81
2024-05-09T07:06:29.242Z,1023.73
2024-05-09T07:21:54.205Z,1023.58
2024-05-09T07:37:19.484Z,1023.46
2024-05-09T07:53:34.386Z,1023.33
2024-05-09T08:08:09.236Z,1023.19
2024-05-09T08:23:35.197Z,1023.09
2024-05-09T08:39:00.280Z,1023.03
2024-05-09T08:54:25.236Z,1022.96
2024-05-09T09:09:50.191Z,1022.86
2024-05-09T09:25:15.401Z,1022.86
2024-05-09T09:40:46.519Z,1022.97
2024-05-09T09:56:06.209Z,1022.83
2024-05-09T10:11:32.866Z,1022.67
2024-05-09T10:26:56.154Z,1022.59
2024-05-09T10:42:21.236Z,1022.59
2024-05-09T10:57:46.244Z,1022.38
2024-05-09T11:13:11.209Z,1022.30
2024-05-09T11:28:36.450Z,1022.23
2024-05-09T11:44:01.100Z,1022.13
2024-05-09T11:59:26.138Z,1022.01
2024-05-09T12:14:51.107Z,1021.84
2024-05-09T12:30:25.173Z,1021.70
2024-05-09T12:45:42.108Z,1021.71
2024-05-09T13:01:07.600Z,1021.58
2024-05-09T13:16:32.288Z,1021.46
2024-05-09T13:31:57.073Z,1021.35
2024-05-09T13:47:22.127Z,1021.19
2024-05-09T14:02:47.051Z,1021.14
2024-05-09T14:18:14.335Z,1021.02
2024-05-09T14:33:39.204Z,1020.87
2024-05-09T14:49:04.103Z,1020.77
2024-05-09T15:04:29.163Z,1020.69
2024-05-09T15:19:54.043Z,1020.66
2024-05-09T15:35:19.015Z,1020.56
2024-05-09T15:50:44.405Z,1020.52
2024-05-09T16:06:09.964Z,1020.56
2024-05-09T16:21:35.108Z,1020.55
2024-05-09T16:37:00.145Z,1020.46
2024-05-09T16:52:24.999Z,1020.49
2024-05-09T17:07:50.909Z,1020.47
2024-05-09T17:23:17.412Z,1020.48
2024-05-09T17:38:41.996Z,1020.51
2024-05-09T17:54:06.963Z,1020.63
2024-05-09T18:09:31.945Z,1020.69
2024-05-09T18:24:56.957Z,1020.65
2024-05-09T18:55:46.927Z,1020.82
2024-05-09T19:11:11.973Z,1020.91
2024-05-09T19:26:36.958Z,1021.17
2024-05-09T19:42:01.842Z,1021.29
2024-05-09T19:57:26.962Z,1021.40
2024-05-09T20:12:51.907Z,1021.46
2024-05-09T20:28:17.016Z,1021.44
2024-05-09T20:43:41.992Z,1021.43
2024-05-09T20:59:06.909Z,1021.38
2024-05-09T21:14:31.860Z,1021.41
2024-05-09T21:29:56.839Z,1021.36
2024-05-09T21:46:02.724Z,1021.27
2024-05-09T22:01:28.013Z,1021.26
2024-05-09T22:16:53.862Z,1021.27
2024-05-09T22:32:18.912Z,1021.23
2024-05-09T22:47:44.898Z,1021.24
2024-05-09T23:03:09.885Z,1021.14
2024-05-09T23:18:34.961Z,1021.08
2024-05-09T23:33:59.975Z,1020.97
2024-05-09T23:49:24.932Z,1020.78
